sensor_id;sensor_type;location;lat;lon;timestamp;P1;durP1;ratioP1;P2;durP2;ratioP2
4084;SDS011;2057;50.858;6.572;2023-07-09T00:01:40;16.03;;;8.40;;
4084;SDS011;2057;50.858;6.572;2023-07-09T00:04:08;11.37;;;7.57;;
4084;SDS011;2057;50.858;6.572;2023-07-09T00:06:35;16.10;;;7.60;;
4084;SDS011;2057;50.858;6.572;2023-07-09T00:09:04;18.00;;;8.00;;
4084;SDS011;2057;50.858;6.572;2023-07-09T00:11:31;11.37;;;8.47;;
4084;SDS011;2057;50.858;6.572;2023-07-09T00:13:56;16.23;;;8.53;;
4084;SDS011;2057;50.858;6.572;2023-07-09T00:16:23;13.43;;;7.40;;
4084;SDS011;2057;50.858;6.572;2023-07-09T00:18:50;32.33;;;8.67;;
4084;SDS011;2057;50.858;6.572;2023-07-09T00:21:16;16.67;;;8.50;;
4084;SDS011;2057;50.858;6.572;2023-07-09T00:23:42;9.70;;;6.77;;
4084;SDS011;2057;50.858;6.572;2023-07-09T00:26:09;14.77;;;7.63;;
4084;SDS011;2057;50.858;6.572;2023-07-09T00:28:35;17.33;;;8.23;;
4084;SDS011;2057;50.858;6.572;2023-07-09T00:31:00;20.47;;;8.00;;
4084;SDS011;2057;50.858;6.572;2023-07-09T00:33:26;9.17;;;6.63;;
4084;SDS011;2057;50.858;6.572;2023-07-09T00:35:56;14.30;;;8.73;;
4084;SDS011;2057;50.858;6.572;2023-07-09T00:38:22;17.10;;;8.47;;
4084;SDS011;2057;50.858;6.572;2023-07-09T00:43:29;19.47;;;7.63;;
4084;SDS011;2057;50.858;6.572;2023-07-09T00:48:54;13.07;;;9.23;;
4084;SDS011;2057;50.858;6.572;2023-07-09T00:51:27;12.90;;;8.57;;
4084;SDS011;2057;50.858;6.572;2023-07-09T00:53:55;17.87;;;8.13;;
4084;SDS011;2057;50.858;6.572;2023-07-09T00:58:54;23.70;;;9.27;;
4084;SDS011;2057;50.858;6.572;2023-07-09T01:01:21;15.13;;;8.30;;
4084;SDS011;2057;50.858;6.572;2023-07-09T01:03:49;13.93;;;9.43;;
4084;SDS011;2057;50.858;6.572;2023-07-09T01:06:25;17.23;;;8.67;;
4084;SDS011;2057;50.858;6.572;2023-07-09T01:08:57;10.33;;;7.80;;
4084;SDS011;2057;50.858;6.572;2023-07-09T01:11:26;20.53;;;9.17;;
4084;SDS011;2057;50.858;6.572;2023-07-09T01:13:52;23.10;;;8.47;;
4084;SDS011;2057;50.858;6.572;2023-07-09T01:16:24;16.77;;;8.80;;
4084;SDS011;2057;50.858;6.572;2023-07-09T01:18:55;17.23;;;8.97;;
4084;SDS011;2057;50.858;6.572;2023-07-09T01:21:20;22.03;;;10.20;;
4084;SDS011;2057;50.858;6.572;2023-07-09T01:23:47;13.47;;;8.00;;
4084;SDS011;2057;50.858;6.572;2023-07-09T01:26:14;14.80;;;8.23;;
4084;SDS011;2057;50.858;6.572;2023-07-09T01:28:42;11.60;;;7.90;;
4084;SDS011;2057;50.858;6.572;2023-07-09T01:31:11;24.23;;;9.07;;
4084;SDS011;2057;50.858;6.572;2023-07-09T01:33:39;15.67;;;9.20;;
4084;SDS011;2057;50.858;6.572;2023-07-09T01:36:06;13.03;;;8.90;;
4084;SDS011;2057;50.858;6.572;2023-07-09T01:38:33;17.03;;;10.07;;
4084;SDS011;2057;50.858;6.572;2023-07-09T01:40:59;15.00;;;9.90;;
4084;SDS011;2057;50.858;6.572;2023-07-09T01:43:26;15.97;;;9.07;;
4084;SDS011;2057;50.858;6.572;2023-07-09T01:45:52;17.17;;;9.27;;
4084;SDS011;2057;50.858;6.572;2023-07-09T01:48:18;27.50;;;10.20;;
4084;SDS011;2057;50.858;6.572;2023-07-09T01:50:45;22.80;;;8.87;;
4084;SDS011;2057;50.858;6.572;2023-07-09T01:53:14;22.20;;;8.93;;
4084;SDS011;2057;50.858;6.572;2023-07-09T01:55:40;17.00;;;9.50;;
4084;SDS011;2057;50.858;6.572;2023-07-09T01:58:06;13.43;;;8.10;;
4084;SDS011;2057;50.858;6.572;2023-07-09T02:00:33;21.00;;;9.90;;
4084;SDS011;2057;50.858;6.572;2023-07-09T02:03:06;21.90;;;8.60;;
4084;SDS011;2057;50.858;6.572;2023-07-09T02:05:32;16.80;;;8.33;;
4084;SDS011;2057;50.858;6.572;2023-07-09T02:07:58;15.93;;;8.77;;
4084;SDS011;2057;50.858;6.572;2023-07-09T02:10:23;12.77;;;8.93;;
4084;SDS011;2057;50.858;6.572;2023-07-09T02:12:49;14.33;;;8.80;;
4084;SDS011;2057;50.858;6.572;2023-07-09T02:15:15;17.90;;;8.43;;
4084;SDS011;2057;50.858;6.572;2023-07-09T02:17:41;15.10;;;8.60;;
4084;SDS011;2057;50.858;6.572;2023-07-09T02:20:10;15.87;;;9.57;;
4084;SDS011;2057;50.858;6.572;2023-07-09T02:22:37;18.77;;;8.80;;
4084;SDS011;2057;50.858;6.572;2023-07-09T02:25:03;18.73;;;8.90;;
4084;SDS011;2057;50.858;6.572;2023-07-09T02:27:30;15.87;;;9.10;;
4084;SDS011;2057;50.858;6.572;2023-07-09T02:29:56;21.70;;;10.00;;
4084;SDS011;2057;50.858;6.572;2023-07-09T02:32:23;10.93;;;7.70;;
4084;SDS011;2057;50.858;6.572;2023-07-09T02:34:51;16.03;;;8.57;;
4084;SDS011;2057;50.858;6.572;2023-07-09T02:37:20;23.60;;;7.83;;
4084;SDS011;2057;50.858;6.572;2023-07-09T02:39:47;14.93;;;9.13;;
4084;SDS011;2057;50.858;6.572;2023-07-09T02:42:13;12.50;;;8.53;;
4084;SDS011;2057;50.858;6.572;2023-07-09T02:44:41;18.07;;;9.90;;
4084;SDS011;2057;50.858;6.572;2023-07-09T02:47:07;15.23;;;8.37;;
4084;SDS011;2057;50.858;6.572;2023-07-09T02:49:33;13.40;;;9.20;;
4084;SDS011;2057;50.858;6.572;2023-07-09T02:51:58;15.30;;;9.00;;
4084;SDS011;2057;50.858;6.572;2023-07-09T02:54:24;19.00;;;9.90;;
4084;SDS011;2057;50.858;6.572;2023-07-09T02:56:49;16.40;;;10.00;;
4084;SDS011;2057;50.858;6.572;2023-07-09T02:59:15;15.40;;;9.77;;
4084;SDS011;2057;50.858;6.572;2023-07-09T03:01:42;22.23;;;9.80;;
4084;SDS011;2057;50.858;6.572;2023-07-09T03:04:08;14.63;;;9.00;;
4084;SDS011;2057;50.858;6.572;2023-07-09T03:06:34;16.47;;;10.07;;
4084;SDS011;2057;50.858;6.572;2023-07-09T03:09:01;13.17;;;8.53;;
4084;SDS011;2057;50.858;6.572;2023-07-09T03:11:30;20.87;;;9.00;;
4084;SDS011;2057;50.858;6.572;2023-07-09T03:13:57;13.90;;;9.37;;
4084;SDS011;2057;50.858;6.572;2023-07-09T03:16:25;17.73;;;9.20;;
4084;SDS011;2057;50.858;6.572;2023-07-09T03:18:51;21.50;;;10.60;;
4084;SDS011;2057;50.858;6.572;2023-07-09T03:21:17;16.07;;;8.57;;
4084;SDS011;2057;50.858;6.572;2023-07-09T03:23:42;19.27;;;9.93;;
4084;SDS011;2057;50.858;6.572;2023-07-09T03:26:10;29.33;;;10.60;;
4084;SDS011;2057;50.858;6.572;2023-07-09T03:28:35;18.53;;;9.40;;
4084;SDS011;2057;50.858;6.572;2023-07-09T03:31:01;21.73;;;8.70;;
4084;SDS011;2057;50.858;6.572;2023-07-09T03:33:26;20.70;;;8.90;;
4084;SDS011;2057;50.858;6.572;2023-07-09T03:35:52;21.93;;;9.07;;
4084;SDS011;2057;50.858;6.572;2023-07-09T03:38:18;23.90;;;8.60;;
4084;SDS011;2057;50.858;6.572;2023-07-09T03:40:43;20.27;;;10.10;;
4084;SDS011;2057;50.858;6.572;2023-07-09T03:43:11;21.53;;;9.17;;
4084;SDS011;2057;50.858;6.572;2023-07-09T03:45:39;18.77;;;9.20;;
4084;SDS011;2057;50.858;6.572;2023-07-09T03:48:04;26.03;;;9.83;;
4084;SDS011;2057;50.858;6.572;2023-07-09T03:50:30;26.13;;;9.70;;
4084;SDS011;2057;50.858;6.572;2023-07-09T03:52:56;22.40;;;8.90;;
4084;SDS011;2057;50.858;6.572;2023-07-09T03:55:21;18.43;;;9.50;;
4084;SDS011;2057;50.858;6.572;2023-07-09T03:57:47;19.73;;;9.83;;
4084;SDS011;2057;50.858;6.572;2023-07-09T04:00:13;32.60;;;10.60;;
4084;SDS011;2057;50.858;6.572;2023-07-09T04:02:39;18.53;;;9.00;;
4084;SDS011;2057;50.858;6.572;2023-07-09T04:05:06;29.13;;;9.87;;
4084;SDS011;2057;50.858;6.572;2023-07-09T04:07:33;13.57;;;8.80;;
4084;SDS011;2057;50.858;6.572;2023-07-09T04:09:59;213.40;;;18.83;;
4084;SDS011;2057;50.858;6.572;2023-07-09T04:12:24;15.50;;;9.20;;
4084;SDS011;2057;50.858;6.572;2023-07-09T04:14:52;26.63;;;9.23;;
4084;SDS011;2057;50.858;6.572;2023-07-09T04:17:17;16.60;;;8.57;;
4084;SDS011;2057;50.858;6.572;2023-07-09T04:19:43;27.63;;;9.90;;
4084;SDS011;2057;50.858;6.572;2023-07-09T04:22:11;16.70;;;9.73;;
4084;SDS011;2057;50.858;6.572;2023-07-09T04:24:36;13.47;;;7.90;;
4084;SDS011;2057;50.858;6.572;2023-07-09T04:27:02;15.70;;;9.77;;
4084;SDS011;2057;50.858;6.572;2023-07-09T04:29:28;39.13;;;11.50;;
4084;SDS011;2057;50.858;6.572;2023-07-09T04:32:01;16.03;;;9.13;;
4084;SDS011;2057;50.858;6.572;2023-07-09T04:34:27;24.70;;;10.20;;
4084;SDS011;2057;50.858;6.572;2023-07-09T04:36:53;37.33;;;10.47;;
4084;SDS011;2057;50.858;6.572;2023-07-09T04:39:18;27.67;;;10.37;;
4084;SDS011;2057;50.858;6.572;2023-07-09T04:41:43;29.53;;;9.53;;
4084;SDS011;2057;50.858;6.572;2023-07-09T04:44:09;13.00;;;8.50;;
4084;SDS011;2057;50.858;6.572;2023-07-09T04:46:34;27.40;;;10.67;;
4084;SDS011;2057;50.858;6.572;2023-07-09T04:48:59;13.93;;;10.00;;
4084;SDS011;2057;50.858;6.572;2023-07-09T04:51:25;16.23;;;9.47;;
4084;SDS011;2057;50.858;6.572;2023-07-09T04:53:51;26.70;;;9.80;;
4084;SDS011;2057;50.858;6.572;2023-07-09T04:56:17;17.43;;;9.20;;
4084;SDS011;2057;50.858;6.572;2023-07-09T04:58:43;18.33;;;8.80;;
4084;SDS011;2057;50.858;6.572;2023-07-09T05:01:08;19.07;;;8.80;;
4084;SDS011;2057;50.858;6.572;2023-07-09T05:03:33;15.90;;;8.60;;
4084;SDS011;2057;50.858;6.572;2023-07-09T05:05:59;14.87;;;9.10;;
4084;SDS011;2057;50.858;6.572;2023-07-09T05:08:24;20.60;;;7.73;;
4084;SDS011;2057;50.858;6.572;2023-07-09T05:10:50;17.90;;;9.13;;
4084;SDS011;2057;50.858;6.572;2023-07-09T05:13:17;12.20;;;8.90;;
4084;SDS011;2057;50.858;6.572;2023-07-09T05:15:44;23.40;;;8.30;;
4084;SDS011;2057;50.858;6.572;2023-07-09T05:18:11;19.00;;;10.03;;
4084;SDS011;2057;50.858;6.572;2023-07-09T05:20:46;11.00;;;8.20;;
4084;SDS011;2057;50.858;6.572;2023-07-09T05:23:12;29.80;;;8.27;;
4084;SDS011;2057;50.858;6.572;2023-07-09T05:25:37;18.20;;;8.90;;
4084;SDS011;2057;50.858;6.572;2023-07-09T05:28:03;18.63;;;7.43;;
4084;SDS011;2057;50.858;6.572;2023-07-09T05:30:30;17.70;;;9.07;;
4084;SDS011;2057;50.858;6.572;2023-07-09T05:32:56;21.63;;;8.90;;
4084;SDS011;2057;50.858;6.572;2023-07-09T05:35:23;19.73;;;8.83;;
4084;SDS011;2057;50.858;6.572;2023-07-09T05:37:50;13.27;;;7.70;;
4084;SDS011;2057;50.858;6.572;2023-07-09T05:40:16;28.40;;;8.20;;
4084;SDS011;2057;50.858;6.572;2023-07-09T05:42:41;13.27;;;8.27;;
4084;SDS011;2057;50.858;6.572;2023-07-09T05:45:07;12.03;;;9.03;;
4084;SDS011;2057;50.858;6.572;2023-07-09T05:47:32;34.33;;;9.40;;
4084;SDS011;2057;50.858;6.572;2023-07-09T05:49:58;21.17;;;9.17;;
4084;SDS011;2057;50.858;6.572;2023-07-09T05:52:23;17.03;;;8.57;;
4084;SDS011;2057;50.858;6.572;2023-07-09T05:54:49;15.90;;;8.97;;
4084;SDS011;2057;50.858;6.572;2023-07-09T05:57:16;18.37;;;9.43;;
4084;SDS011;2057;50.858;6.572;2023-07-09T05:59:41;16.87;;;7.97;;
4084;SDS011;2057;50.858;6.572;2023-07-09T06:02:09;12.53;;;7.73;;
4084;SDS011;2057;50.858;6.572;2023-07-09T06:04:36;12.07;;;7.57;;
4084;SDS011;2057;50.858;6.572;2023-07-09T06:07:02;15.50;;;7.50;;
4084;SDS011;2057;50.858;6.572;2023-07-09T06:09:28;14.10;;;7.77;;
4084;SDS011;2057;50.858;6.572;2023-07-09T06:11:54;11.13;;;7.23;;
4084;SDS011;2057;50.858;6.572;2023-07-09T06:14:20;12.70;;;8.27;;
4084;SDS011;2057;50.858;6.572;2023-07-09T06:16:45;13.23;;;8.13;;
4084;SDS011;2057;50.858;6.572;2023-07-09T06:19:11;20.83;;;8.57;;
4084;SDS011;2057;50.858;6.572;2023-07-09T06:21:36;16.23;;;7.90;;
4084;SDS011;2057;50.858;6.572;2023-07-09T06:24:01;12.90;;;7.47;;
4084;SDS011;2057;50.858;6.572;2023-07-09T06:26:27;10.97;;;7.73;;
4084;SDS011;2057;50.858;6.572;2023-07-09T06:28:52;17.27;;;7.83;;
4084;SDS011;2057;50.858;6.572;2023-07-09T06:31:17;30.97;;;7.50;;
4084;SDS011;2057;50.858;6.572;2023-07-09T06:33:45;12.57;;;7.07;;
4084;SDS011;2057;50.858;6.572;2023-07-09T06:36:12;16.67;;;7.87;;
4084;SDS011;2057;50.858;6.572;2023-07-09T06:38:37;18.20;;;7.87;;
4084;SDS011;2057;50.858;6.572;2023-07-09T06:41:03;14.43;;;7.30;;
4084;SDS011;2057;50.858;6.572;2023-07-09T06:43:28;14.30;;;7.53;;
4084;SDS011;2057;50.858;6.572;2023-07-09T06:45:56;11.47;;;7.27;;
4084;SDS011;2057;50.858;6.572;2023-07-09T06:48:27;18.03;;;7.67;;
4084;SDS011;2057;50.858;6.572;2023-07-09T06:50:53;11.13;;;7.77;;
4084;SDS011;2057;50.858;6.572;2023-07-09T06:53:20;7.70;;;6.90;;
4084;SDS011;2057;50.858;6.572;2023-07-09T06:55:47;9.73;;;7.47;;
4084;SDS011;2057;50.858;6.572;2023-07-09T06:58:14;17.17;;;7.20;;
4084;SDS011;2057;50.858;6.572;2023-07-09T07:00:40;15.90;;;6.30;;
4084;SDS011;2057;50.858;6.572;2023-07-09T07:03:06;8.93;;;6.83;;
4084;SDS011;2057;50.858;6.572;2023-07-09T07:05:31;9.23;;;6.80;;
4084;SDS011;2057;50.858;6.572;2023-07-09T07:07:57;13.47;;;7.40;;
4084;SDS011;2057;50.858;6.572;2023-07-09T07:10:23;14.90;;;6.90;;
4084;SDS011;2057;50.858;6.572;2023-07-09T07:12:48;16.00;;;8.10;;
4084;SDS011;2057;50.858;6.572;2023-07-09T07:15:15;14.43;;;7.70;;
4084;SDS011;2057;50.858;6.572;2023-07-09T07:17:42;14.43;;;6.67;;
4084;SDS011;2057;50.858;6.572;2023-07-09T07:20:08;9.87;;;7.20;;
4084;SDS011;2057;50.858;6.572;2023-07-09T07:22:35;11.53;;;6.80;;
4084;SDS011;2057;50.858;6.572;2023-07-09T07:25:01;9.87;;;7.50;;
4084;SDS011;2057;50.858;6.572;2023-07-09T07:27:27;8.63;;;5.87;;
4084;SDS011;2057;50.858;6.572;2023-07-09T07:29:53;13.63;;;7.47;;
4084;SDS011;2057;50.858;6.572;2023-07-09T07:32:19;11.13;;;6.00;;
4084;SDS011;2057;50.858;6.572;2023-07-09T07:34:46;16.90;;;6.50;;
4084;SDS011;2057;50.858;6.572;2023-07-09T07:37:12;8.40;;;6.40;;
4084;SDS011;2057;50.858;6.572;2023-07-09T07:39:38;12.70;;;6.57;;
4084;SDS011;2057;50.858;6.572;2023-07-09T07:42:03;17.23;;;8.23;;
4084;SDS011;2057;50.858;6.572;2023-07-09T07:44:29;8.83;;;5.33;;
4084;SDS011;2057;50.858;6.572;2023-07-09T07:46:56;16.43;;;5.70;;
4084;SDS011;2057;50.858;6.572;2023-07-09T07:49:22;9.47;;;5.60;;
4084;SDS011;2057;50.858;6.572;2023-07-09T07:51:47;22.63;;;7.40;;
4084;SDS011;2057;50.858;6.572;2023-07-09T07:54:13;12.03;;;7.17;;
4084;SDS011;2057;50.858;6.572;2023-07-09T07:56:39;19.70;;;6.90;;
4084;SDS011;2057;50.858;6.572;2023-07-09T07:59:05;11.03;;;6.03;;
4084;SDS011;2057;50.858;6.572;2023-07-09T08:01:30;16.57;;;7.13;;
4084;SDS011;2057;50.858;6.572;2023-07-09T08:03:56;9.10;;;6.67;;
4084;SDS011;2057;50.858;6.572;2023-07-09T08:06:21;11.53;;;6.30;;
4084;SDS011;2057;50.858;6.572;2023-07-09T08:08:47;12.23;;;6.80;;
4084;SDS011;2057;50.858;6.572;2023-07-09T08:11:15;11.13;;;6.93;;
4084;SDS011;2057;50.858;6.572;2023-07-09T08:13:42;8.60;;;6.03;;
4084;SDS011;2057;50.858;6.572;2023-07-09T08:16:08;10.43;;;5.23;;
4084;SDS011;2057;50.858;6.572;2023-07-09T08:18:36;8.77;;;6.90;;
4084;SDS011;2057;50.858;6.572;2023-07-09T08:21:01;10.50;;;6.80;;
4084;SDS011;2057;50.858;6.572;2023-07-09T08:23:28;12.70;;;6.20;;
4084;SDS011;2057;50.858;6.572;2023-07-09T08:25:54;10.83;;;6.80;;
4084;SDS011;2057;50.858;6.572;2023-07-09T08:28:25;12.10;;;5.63;;
4084;SDS011;2057;50.858;6.572;2023-07-09T08:30:51;11.03;;;6.37;;
4084;SDS011;2057;50.858;6.572;2023-07-09T08:33:18;11.93;;;6.47;;
4084;SDS011;2057;50.858;6.572;2023-07-09T08:35:43;15.23;;;6.70;;
4084;SDS011;2057;50.858;6.572;2023-07-09T08:38:09;10.50;;;6.47;;
4084;SDS011;2057;50.858;6.572;2023-07-09T08:40:38;7.67;;;5.93;;
4084;SDS011;2057;50.858;6.572;2023-07-09T08:43:18;7.17;;;5.90;;
4084;SDS011;2057;50.858;6.572;2023-07-09T08:46:15;11.13;;;6.80;;
4084;SDS011;2057;50.858;6.572;2023-07-09T08:48:46;7.03;;;5.50;;
4084;SDS011;2057;50.858;6.572;2023-07-09T08:53:59;9.33;;;5.73;;
4084;SDS011;2057;50.858;6.572;2023-07-09T08:56:31;27.63;;;7.20;;
4084;SDS011;2057;50.858;6.572;2023-07-09T08:59:01;15.43;;;6.17;;
4084;SDS011;2057;50.858;6.572;2023-07-09T09:01:36;11.50;;;5.90;;
4084;SDS011;2057;50.858;6.572;2023-07-09T09:04:07;9.40;;;5.50;;
4084;SDS011;2057;50.858;6.572;2023-07-09T09:06:38;8.73;;;5.50;;
4084;SDS011;2057;50.858;6.572;2023-07-09T09:09:15;9.30;;;6.23;;
4084;SDS011;2057;50.858;6.572;2023-07-09T09:12:02;12.43;;;6.00;;
4084;SDS011;2057;50.858;6.572;2023-07-09T09:14:51;7.83;;;5.93;;
4084;SDS011;2057;50.858;6.572;2023-07-09T09:17:23;7.20;;;5.73;;
4084;SDS011;2057;50.858;6.572;2023-07-09T09:19:56;15.50;;;5.43;;
4084;SDS011;2057;50.858;6.572;2023-07-09T09:22:27;14.10;;;5.27;;
4084;SDS011;2057;50.858;6.572;2023-07-09T09:25:10;14.70;;;5.40;;
4084;SDS011;2057;50.858;6.572;2023-07-09T09:27:44;6.40;;;4.30;;
4084;SDS011;2057;50.858;6.572;2023-07-09T09:30:15;8.47;;;4.77;;
4084;SDS011;2057;50.858;6.572;2023-07-09T09:32:44;10.53;;;4.93;;
4084;SDS011;2057;50.858;6.572;2023-07-09T09:35:16;9.97;;;4.70;;
4084;SDS011;2057;50.858;6.572;2023-07-09T09:37:52;6.63;;;4.60;;
4084;SDS011;2057;50.858;6.572;2023-07-09T09:40:20;12.57;;;4.93;;
4084;SDS011;2057;50.858;6.572;2023-07-09T09:42:48;5.10;;;4.47;;
4084;SDS011;2057;50.858;6.572;2023-07-09T09:45:20;7.40;;;4.50;;
4084;SDS011;2057;50.858;6.572;2023-07-09T09:47:51;11.13;;;5.67;;
4084;SDS011;2057;50.858;6.572;2023-07-09T09:50:17;20.70;;;5.30;;
4084;SDS011;2057;50.858;6.572;2023-07-09T09:52:46;21.57;;;5.00;;
4084;SDS011;2057;50.858;6.572;2023-07-09T09:55:16;12.03;;;4.77;;
4084;SDS011;2057;50.858;6.572;2023-07-09T09:57:48;7.87;;;4.80;;
4084;SDS011;2057;50.858;6.572;2023-07-09T10:00:18;10.10;;;4.40;;
4084;SDS011;2057;50.858;6.572;2023-07-09T10:02:47;6.20;;;4.80;;
4084;SDS011;2057;50.858;6.572;2023-07-09T10:05:17;7.30;;;4.67;;
4084;SDS011;2057;50.858;6.572;2023-07-09T10:10:32;5.90;;;4.60;;
4084;SDS011;2057;50.858;6.572;2023-07-09T10:13:10;14.77;;;4.60;;
4084;SDS011;2057;50.858;6.572;2023-07-09T10:21:10;12.00;;;4.50;;
4084;SDS011;2057;50.858;6.572;2023-07-09T10:29:32;11.77;;;4.43;;
4084;SDS011;2057;50.858;6.572;2023-07-09T10:40:03;13.40;;;5.67;;
4084;SDS011;2057;50.858;6.572;2023-07-09T10:42:42;6.90;;;4.60;;
4084;SDS011;2057;50.858;6.572;2023-07-09T10:45:15;8.50;;;4.90;;
4084;SDS011;2057;50.858;6.572;2023-07-09T10:47:57;8.10;;;4.67;;
4084;SDS011;2057;50.858;6.572;2023-07-09T10:50:28;8.90;;;5.23;;
4084;SDS011;2057;50.858;6.572;2023-07-09T10:52:59;5.60;;;3.97;;
4084;SDS011;2057;50.858;6.572;2023-07-09T11:00:52;6.77;;;4.70;;
4084;SDS011;2057;50.858;6.572;2023-07-09T11:05:55;10.60;;;4.67;;
4084;SDS011;2057;50.858;6.572;2023-07-09T11:08:25;6.17;;;4.10;;
4084;SDS011;2057;50.858;6.572;2023-07-09T11:10:59;8.93;;;4.00;;
4084;SDS011;2057;50.858;6.572;2023-07-09T11:13:43;11.30;;;4.90;;
4084;SDS011;2057;50.858;6.572;2023-07-09T11:16:16;10.80;;;4.53;;
4084;SDS011;2057;50.858;6.572;2023-07-09T11:19:00;9.90;;;4.73;;
4084;SDS011;2057;50.858;6.572;2023-07-09T11:21:28;8.80;;;4.63;;
4084;SDS011;2057;50.858;6.572;2023-07-09T11:23:55;8.23;;;5.17;;
4084;SDS011;2057;50.858;6.572;2023-07-09T11:26:28;9.23;;;3.83;;
4084;SDS011;2057;50.858;6.572;2023-07-09T11:29:06;10.37;;;5.07;;
4084;SDS011;2057;50.858;6.572;2023-07-09T11:31:40;12.50;;;5.10;;
4084;SDS011;2057;50.858;6.572;2023-07-09T11:34:14;8.47;;;5.23;;
4084;SDS011;2057;50.858;6.572;2023-07-09T11:39:21;8.70;;;4.60;;
4084;SDS011;2057;50.858;6.572;2023-07-09T11:41:52;13.43;;;5.17;;
4084;SDS011;2057;50.858;6.572;2023-07-09T11:44:19;6.27;;;4.57;;
4084;SDS011;2057;50.858;6.572;2023-07-09T11:49:50;5.90;;;4.70;;
4084;SDS011;2057;50.858;6.572;2023-07-09T11:52:21;5.50;;;4.47;;
4084;SDS011;2057;50.858;6.572;2023-07-09T11:54:51;9.73;;;4.60;;
4084;SDS011;2057;50.858;6.572;2023-07-09T11:57:17;9.93;;;5.30;;
4084;SDS011;2057;50.858;6.572;2023-07-09T11:59:43;8.43;;;5.30;;
4084;SDS011;2057;50.858;6.572;2023-07-09T12:02:13;13.07;;;4.97;;
4084;SDS011;2057;50.858;6.572;2023-07-09T12:04:47;8.00;;;4.00;;
4084;SDS011;2057;50.858;6.572;2023-07-09T12:07:15;16.33;;;5.77;;
4084;SDS011;2057;50.858;6.572;2023-07-09T12:09:43;7.13;;;4.70;;
4084;SDS011;2057;50.858;6.572;2023-07-09T12:12:17;6.90;;;3.90;;
4084;SDS011;2057;50.858;6.572;2023-07-09T12:14:52;8.40;;;5.23;;
4084;SDS011;2057;50.858;6.572;2023-07-09T12:17:18;10.40;;;4.53;;
4084;SDS011;2057;50.858;6.572;2023-07-09T12:19:44;7.97;;;4.73;;
4084;SDS011;2057;50.858;6.572;2023-07-09T12:22:10;14.23;;;4.40;;
4084;SDS011;2057;50.858;6.572;2023-07-09T12:24:43;6.87;;;4.10;;
4084;SDS011;2057;50.858;6.572;2023-07-09T12:27:17;9.30;;;6.20;;
4084;SDS011;2057;50.858;6.572;2023-07-09T12:29:45;12.77;;;8.57;;
4084;SDS011;2057;50.858;6.572;2023-07-09T12:32:11;9.20;;;4.57;;
4084;SDS011;2057;50.858;6.572;2023-07-09T12:34:41;14.17;;;7.63;;
4084;SDS011;2057;50.858;6.572;2023-07-09T12:37:28;6.83;;;5.43;;
4084;SDS011;2057;50.858;6.572;2023-07-09T12:39:55;7.37;;;6.33;;
4084;SDS011;2057;50.858;6.572;2023-07-09T12:42:28;12.03;;;8.97;;
4084;SDS011;2057;50.858;6.572;2023-07-09T12:44:56;10.40;;;9.30;;
4084;SDS011;2057;50.858;6.572;2023-07-09T12:47:23;18.03;;;8.33;;
4084;SDS011;2057;50.858;6.572;2023-07-09T12:49:50;15.50;;;5.40;;
4084;SDS011;2057;50.858;6.572;2023-07-09T12:52:19;6.30;;;3.90;;
4084;SDS011;2057;50.858;6.572;2023-07-09T12:54:59;13.63;;;5.20;;
4084;SDS011;2057;50.858;6.572;2023-07-09T12:57:27;12.30;;;4.93;;
4084;SDS011;2057;50.858;6.572;2023-07-09T12:59:54;7.10;;;4.47;;
4084;SDS011;2057;50.858;6.572;2023-07-09T13:02:24;7.13;;;4.60;;
4084;SDS011;2057;50.858;6.572;2023-07-09T13:05:01;9.67;;;4.87;;
4084;SDS011;2057;50.858;6.572;2023-07-09T13:07:33;7.30;;;4.77;;
4084;SDS011;2057;50.858;6.572;2023-07-09T13:12:51;7.20;;;4.80;;
4084;SDS011;2057;50.858;6.572;2023-07-09T13:17:48;10.93;;;5.50;;
4084;SDS011;2057;50.858;6.572;2023-07-09T13:20:14;7.87;;;4.63;;
4084;SDS011;2057;50.858;6.572;2023-07-09T13:22:41;8.87;;;5.17;;
4084;SDS011;2057;50.858;6.572;2023-07-09T13:25:08;7.37;;;4.43;;
4084;SDS011;2057;50.858;6.572;2023-07-09T13:27:35;11.23;;;5.33;;
4084;SDS011;2057;50.858;6.572;2023-07-09T13:30:01;9.73;;;4.80;;
4084;SDS011;2057;50.858;6.572;2023-07-09T13:32:28;35.63;;;5.90;;
4084;SDS011;2057;50.858;6.572;2023-07-09T13:34:54;10.70;;;6.07;;
4084;SDS011;2057;50.858;6.572;2023-07-09T13:37:19;17.27;;;6.20;;
4084;SDS011;2057;50.858;6.572;2023-07-09T13:39:45;12.33;;;6.70;;
4084;SDS011;2057;50.858;6.572;2023-07-09T13:42:11;28.50;;;5.73;;
4084;SDS011;2057;50.858;6.572;2023-07-09T13:44:41;9.27;;;5.00;;
4084;SDS011;2057;50.858;6.572;2023-07-09T13:47:16;11.13;;;4.90;;
4084;SDS011;2057;50.858;6.572;2023-07-09T13:49:43;16.43;;;5.20;;
4084;SDS011;2057;50.858;6.572;2023-07-09T13:52:17;11.20;;;5.40;;
4084;SDS011;2057;50.858;6.572;2023-07-09T13:54:45;7.83;;;4.50;;
4084;SDS011;2057;50.858;6.572;2023-07-09T13:57:18;9.20;;;4.37;;
4084;SDS011;2057;50.858;6.572;2023-07-09T13:59:46;15.20;;;5.23;;
4084;SDS011;2057;50.858;6.572;2023-07-09T14:04:56;9.37;;;4.20;;
4084;SDS011;2057;50.858;6.572;2023-07-09T14:07:28;14.17;;;4.70;;
4084;SDS011;2057;50.858;6.572;2023-07-09T14:09:58;6.80;;;4.07;;
4084;SDS011;2057;50.858;6.572;2023-07-09T14:12:25;12.57;;;4.00;;
4084;SDS011;2057;50.858;6.572;2023-07-09T14:14:53;20.07;;;5.83;;
4084;SDS011;2057;50.858;6.572;2023-07-09T14:17:23;21.83;;;6.23;;
4084;SDS011;2057;50.858;6.572;2023-07-09T14:19:48;28.33;;;6.50;;
4084;SDS011;2057;50.858;6.572;2023-07-09T14:22:33;15.50;;;7.50;;
4084;SDS011;2057;50.858;6.572;2023-07-09T14:25:00;18.57;;;8.43;;
4084;SDS011;2057;50.858;6.572;2023-07-09T14:27:25;11.77;;;8.70;;
4084;SDS011;2057;50.858;6.572;2023-07-09T14:29:51;18.47;;;8.80;;
4084;SDS011;2057;50.858;6.572;2023-07-09T14:34:57;32.23;;;9.93;;
4084;SDS011;2057;50.858;6.572;2023-07-09T14:37:23;19.50;;;11.30;;
4084;SDS011;2057;50.858;6.572;2023-07-09T14:39:48;20.57;;;11.37;;
4084;SDS011;2057;50.858;6.572;2023-07-09T14:42:14;19.53;;;11.20;;
4084;SDS011;2057;50.858;6.572;2023-07-09T14:44:41;17.90;;;11.77;;
4084;SDS011;2057;50.858;6.572;2023-07-09T14:47:10;23.23;;;14.23;;
4084;SDS011;2057;50.858;6.572;2023-07-09T14:49:42;18.67;;;14.23;;
4084;SDS011;2057;50.858;6.572;2023-07-09T14:52:11;23.33;;;14.97;;
4084;SDS011;2057;50.858;6.572;2023-07-09T14:54:38;27.10;;;15.07;;
4084;SDS011;2057;50.858;6.572;2023-07-09T14:57:04;31.50;;;16.77;;
4084;SDS011;2057;50.858;6.572;2023-07-09T14:59:42;25.80;;;18.00;;
4084;SDS011;2057;50.858;6.572;2023-07-09T15:05:03;31.17;;;21.93;;
4084;SDS011;2057;50.858;6.572;2023-07-09T15:07:32;31.53;;;19.53;;
4084;SDS011;2057;50.858;6.572;2023-07-09T15:09:57;28.90;;;18.40;;
4084;SDS011;2057;50.858;6.572;2023-07-09T15:12:28;29.33;;;20.50;;
4084;SDS011;2057;50.858;6.572;2023-07-09T15:14:59;35.17;;;21.80;;
4084;SDS011;2057;50.858;6.572;2023-07-09T15:17:31;40.83;;;21.27;;
4084;SDS011;2057;50.858;6.572;2023-07-09T15:19:56;35.00;;;20.90;;
4084;SDS011;2057;50.858;6.572;2023-07-09T15:22:29;34.13;;;20.70;;
4084;SDS011;2057;50.858;6.572;2023-07-09T15:24:57;34.50;;;22.60;;
4084;SDS011;2057;50.858;6.572;2023-07-09T15:27:22;34.27;;;23.57;;
4084;SDS011;2057;50.858;6.572;2023-07-09T15:29:49;35.30;;;20.70;;
4084;SDS011;2057;50.858;6.572;2023-07-09T15:32:14;25.07;;;18.93;;
4084;SDS011;2057;50.858;6.572;2023-07-09T15:34:40;31.13;;;22.03;;
4084;SDS011;2057;50.858;6.572;2023-07-09T15:37:16;39.43;;;23.00;;
4084;SDS011;2057;50.858;6.572;2023-07-09T15:39:42;31.77;;;20.50;;
4084;SDS011;2057;50.858;6.572;2023-07-09T15:42:11;36.60;;;22.40;;
4084;SDS011;2057;50.858;6.572;2023-07-09T15:44:38;29.30;;;20.83;;
4084;SDS011;2057;50.858;6.572;2023-07-09T15:47:03;30.60;;;22.87;;
4084;SDS011;2057;50.858;6.572;2023-07-09T15:49:30;32.90;;;21.70;;
4084;SDS011;2057;50.858;6.572;2023-07-09T15:51:56;36.10;;;20.40;;
4084;SDS011;2057;50.858;6.572;2023-07-09T15:54:23;24.83;;;18.43;;
4084;SDS011;2057;50.858;6.572;2023-07-09T15:56:49;21.70;;;16.90;;
4084;SDS011;2057;50.858;6.572;2023-07-09T16:01:55;26.43;;;16.20;;
4084;SDS011;2057;50.858;6.572;2023-07-09T16:04:22;33.23;;;18.37;;
4084;SDS011;2057;50.858;6.572;2023-07-09T16:06:47;25.30;;;17.33;;
4084;SDS011;2057;50.858;6.572;2023-07-09T16:09:13;23.23;;;15.53;;
4084;SDS011;2057;50.858;6.572;2023-07-09T16:11:40;27.90;;;15.90;;